Time;durP1;ratioP1;P1;durP2;ratioP2;P2;SDS_P1;SDS_P2;PMS_P1;PMS_P2;Temp;Humidity;BMP_temperature;BMP_pressure;BME280_temperature;BME280_humidity;BME280_pressure;Samples;Min_cycle;Max_cycle;Signal;HPM_P1;HPM_P2
2021/01/01 00:01:41;;;;;;;1.87;1.03;;;2.80;86.30;;;;;;5009610;28;20033;-87
2021/01/01 00:04:07;;;;;;;0.47;0.20;;;2.80;86.50;;;;;;5026245;28;20040;-88
2021/01/01 00:06:37;;;;;;;2.80;1.03;;;2.80;86.50;;;;;;5024443;28;20041;-87
2021/01/01 00:09:05;;;;;;;3.60;0.87;;;2.80;86.50;;;;;;5040471;28;20041;-88
2021/01/01 00:11:31;;;;;;;0.40;0.27;;;2.80;86.40;;;;;;5024795;28;20041;-89
2021/01/01 00:13:57;;;;;;;3.67;0.60;;;2.80;86.40;;;;;;5028962;28;20033;-88
2021/01/01 00:16:24;;;;;;;0.90;0.57;;;2.80;86.30;;;;;;5025828;28;20052;-87
2021/01/01 00:18:50;;;;;;;0.60;0.30;;;2.80;86.40;;;;;;5009382;28;20058;-88
2021/01/01 00:21:17;;;;;;;0.63;0.40;;;2.70;86.30;;;;;;5011688;28;20045;-89
2021/01/01 00:23:43;;;;;;;1.33;0.87;;;2.70;86.40;;;;;;5013035;28;20040;-88
2021/01/01 00:26:13;;;;;;;1.57;0.83;;;2.70;86.50;;;;;;5045429;28;20535;-90
2021/01/01 00:28:43;;;;;;;0.75;0.43;;;2.70;86.50;;;;;;5046020;28;20025;-87
2021/01/01 00:31:16;;;;;;;5.60;1.87;;;2.60;86.50;;;;;;5042508;28;20040;-90
2021/01/01 00:33:43;;;;;;;1.83;1.27;;;2.60;86.40;;;;;;5060101;28;20029;-88
2021/01/01 00:36:10;;;;;;;2.20;1.03;;;2.60;86.40;;;;;;5010465;28;20033;-87
2021/01/01 00:38:36;;;;;;;0.83;0.53;;;2.60;86.50;;;;;;5011265;28;20045;-88
2021/01/01 00:41:03;;;;;;;1.87;1.00;;;2.60;86.40;;;;;;5011503;28;20037;-89
2021/01/01 00:43:30;;;;;;;2.07;0.70;;;2.60;86.40;;;;;;5009387;28;20033;-87
2021/01/01 00:45:56;;;;;;;2.43;1.17;;;2.60;86.40;;;;;;5023566;28;20028;-88
2021/01/01 00:48:22;;;;;;;1.97;1.03;;;2.60;86.60;;;;;;5028086;28;20025;-89
2021/01/01 00:50:49;;;;;;;2.83;0.67;;;2.60;86.40;;;;;;5011176;28;20037;-88
2021/01/01 00:53:15;;;;;;;22.37;1.67;;;2.50;86.40;;;;;;5041873;28;20029;-88
2021/01/01 00:55:42;;;;;;;1.30;0.63;;;2.50;86.40;;;;;;5023698;28;20028;-88
2021/01/01 00:58:08;;;;;;;5.40;1.37;;;2.50;86.50;;;;;;5023807;28;20036;-90
2021/01/01 01:00:34;;;;;;;0.90;0.70;;;2.40;86.40;;;;;;5022761;28;20029;-89
2021/01/01 01:03:01;;;;;;;1.93;0.60;;;2.50;86.50;;;;;;5039306;28;20049;-90
2021/01/01 01:05:27;;;;;;;0.77;0.50;;;2.40;86.40;;;;;;5023646;28;20527;-89
2021/01/01 01:07:54;;;;;;;0.73;0.37;;;2.40;86.40;;;;;;5022763;28;20037;-90
2021/01/01 01:10:20;;;;;;;2.73;1.03;;;2.50;86.40;;;;;;5039658;28;20033;-87
2021/01/01 01:12:47;;;;;;;9.63;0.80;;;2.40;86.20;;;;;;5039714;28;20043;-87
2021/01/01 01:15:13;;;;;;;4.33;1.13;;;2.40;86.20;;;;;;5021692;28;20564;-88
2021/01/01 01:17:40;;;;;;;4.23;0.90;;;2.40;86.30;;;;;;5022654;28;20025;-87
2021/01/01 01:20:08;;;;;;;2.73;1.53;;;2.40;86.30;;;;;;5022020;28;20040;-87
2021/01/01 01:22:35;;;;;;;3.80;0.83;;;2.40;86.30;;;;;;5038304;28;20033;-90
2021/01/01 01:25:01;;;;;;;1.63;0.80;;;2.40;86.30;;;;;;5037793;28;20056;-88
2021/01/01 01:27:28;;;;;;;3.47;0.80;;;2.40;86.40;;;;;;5022092;28;20343;-88
2021/01/01 01:29:54;;;;;;;3.63;0.90;;;2.40;86.40;;;;;;5038583;28;20036;-87
2021/01/01 01:32:20;;;;;;;1.67;0.80;;;2.30;86.30;;;;;;5004618;28;20044;-90
2021/01/01 01:34:47;;;;;;;0.63;0.50;;;2.30;86.40;;;;;;5021851;28;20032;-85
2021/01/01 01:37:13;;;;;;;3.90;1.73;;;2.30;86.50;;;;;;5021866;28;20553;-88
2021/01/01 01:39:40;;;;;;;4.93;1.57;;;2.20;86.50;;;;;;5021832;28;20029;-87
2021/01/01 01:42:06;;;;;;;6.23;1.30;;;2.20;86.60;;;;;;5055693;28;20029;-89
2021/01/01 01:44:33;;;;;;;2.07;0.63;;;2.10;86.70;;;;;;5004860;28;20049;-86
2021/01/01 01:46:59;;;;;;;1.07;0.67;;;2.10;86.70;;;;;;5004559;28;20040;-87
2021/01/01 01:49:25;;;;;;;3.30;1.10;;;2.10;86.70;;;;;;5021765;28;20029;-87
2021/01/01 01:51:52;;;;;;;1.33;0.67;;;2.10;86.70;;;;;;5004397;28;20045;-92
2021/01/01 01:54:19;;;;;;;1.57;0.97;;;2.00;86.70;;;;;;5022042;28;20044;-91
2021/01/01 01:56:45;;;;;;;1.90;1.33;;;2.00;86.70;;;;;;5038115;28;20052;-87
2021/01/01 01:59:15;;;;;;;2.07;1.00;;;2.00;86.80;;;;;;5035939;28;20041;-88
2021/01/01 02:01:42;;;;;;;6.00;1.17;;;2.00;86.80;;;;;;5020352;28;20047;-88
2021/01/01 02:04:08;;;;;;;0.80;0.77;;;2.00;86.90;;;;;;5020522;28;20064;-88
2021/01/01 02:06:34;;;;;;;0.93;0.57;;;2.00;86.90;;;;;;5020423;28;20045;-87
2021/01/01 02:09:01;;;;;;;0.77;0.47;;;2.00;86.80;;;;;;5004177;28;20045;-87
2021/01/01 02:11:28;;;;;;;1.97;0.90;;;2.00;86.80;;;;;;5037221;28;20036;-86
2021/01/01 02:13:56;;;;;;;2.00;1.07;;;2.00;86.60;;;;;;5020581;28;20045;-87
2021/01/01 02:16:22;;;;;;;3.70;1.10;;;2.00;86.60;;;;;;5020099;28;20037;-86
2021/01/01 02:18:48;;;;;;;4.87;0.70;;;2.00;86.60;;;;;;5037130;28;20499;-88
2021/01/01 02:21:16;;;;;;;1.77;0.97;;;1.90;86.50;;;;;;5003696;28;20041;-87
2021/01/01 02:23:46;;;;;;;2.23;1.13;;;1.90;86.40;;;;;;5019741;28;20447;-86
2021/01/01 02:26:12;;;;;;;2.60;1.20;;;1.90;86.50;;;;;;5020684;28;20324;-87
2021/01/01 02:28:39;;;;;;;14.17;1.20;;;1.90;86.40;;;;;;5036102;28;20044;-85
2021/01/01 02:31:05;;;;;;;1.00;0.50;;;1.90;86.30;;;;;;5002875;28;20033;-87
2021/01/01 02:33:31;;;;;;;3.17;1.80;;;1.90;86.50;;;;;;5019622;28;20535;-86
2021/01/01 02:35:58;;;;;;;0.63;0.53;;;1.90;86.40;;;;;;5003481;28;20067;-86
2021/01/01 02:38:24;;;;;;;3.43;0.63;;;1.90;86.40;;;;;;5020067;28;20466;-85
2021/01/01 02:40:51;;;;;;;2.30;1.27;;;1.90;86.40;;;;;;5019820;28;21239;-87
2021/01/01 02:43:17;;;;;;;4.07;1.23;;;1.90;86.50;;;;;;5036584;28;20423;-86
2021/01/01 02:45:44;;;;;;;0.90;0.53;;;1.90;86.60;;;;;;5002917;28;20036;-87
2021/01/01 02:48:20;;;;;;;3.70;1.10;;;1.90;86.50;;;;;;5020253;28;20037;-86
2021/01/01 02:50:46;;;;;;;0.27;0.23;;;1.90;86.40;;;;;;5004450;28;20041;-87
2021/01/01 02:53:13;;;;;;;1.00;0.43;;;1.90;86.40;;;;;;5019693;28;20048;-89
2021/01/01 02:55:39;;;;;;;1.17;0.67;;;1.90;86.30;;;;;;5004941;28;20044;-89
2021/01/01 02:58:06;;;;;;;1.30;0.57;;;1.90;86.20;;;;;;5021301;28;20363;-88
2021/01/01 03:00:34;;;;;;;4.93;0.87;;;1.90;86.20;;;;;;5035154;28;20446;-87
2021/01/01 03:03:01;;;;;;;0.77;0.63;;;1.90;86.10;;;;;;5001472;28;20470;-86
2021/01/01 03:05:27;;;;;;;0.47;0.20;;;1.90;86.20;;;;;;5013221;28;20013;-89
2021/01/01 03:07:53;;;;;;;0.30;0.23;;;1.80;86.30;;;;;;5038572;28;20033;-88
2021/01/01 03:10:20;;;;;;;2.10;1.20;;;1.80;86.40;;;;;;5053467;28;20336;-87
2021/01/01 03:12:46;;;;;;;3.37;1.33;;;1.80;86.40;;;;;;5052079;28;20025;-87
2021/01/01 03:15:13;;;;;;;0.57;0.40;;;1.90;86.40;;;;;;5018443;28;20420;-88
2021/01/01 03:17:41;;;;;;;0.97;0.67;;;1.80;86.20;;;;;;5015874;28;20060;-87
2021/01/01 03:20:07;;;;;;;0.37;0.20;;;1.90;86.30;;;;;;5033278;28;20029;-86
2021/01/01 03:22:34;;;;;;;0.30;0.20;;;1.80;86.20;;;;;;5021633;28;20040;-86
2021/01/01 03:25:03;;;;;;;1.60;0.27;;;1.80;87.00;;;;;;5018919;28;20079;-87
2021/01/01 03:27:29;;;;;;;0.33;0.23;;;1.80;86.20;;;;;;5053096;28;20037;-87
2021/01/01 03:29:55;;;;;;;0.30;0.20;;;1.70;86.40;;;;;;5035200;28;20033;-85
2021/01/01 03:32:22;;;;;;;1.27;0.60;;;1.60;86.50;;;;;;5052748;28;20041;-87
2021/01/01 03:34:48;;;;;;;1.60;1.00;;;1.60;86.70;;;;;;5019384;28;20428;-85
2021/01/01 03:37:15;;;;;;;2.17;1.13;;;1.60;86.70;;;;;;5037517;28;20038;-86
2021/01/01 03:39:42;;;;;;;2.73;1.20;;;1.60;86.80;;;;;;5058210;28;20033;-86
2021/01/01 03:42:11;;;;;;;2.57;0.97;;;1.50;86.70;;;;;;5023606;28;20033;-87
2021/01/01 03:44:38;;;;;;;1.70;0.87;;;1.40;86.80;;;;;;5040531;28;20032;-85
2021/01/01 03:47:05;;;;;;;2.50;1.17;;;1.30;86.90;;;;;;5040109;28;20048;-86
2021/01/01 03:49:31;;;;;;;2.13;1.03;;;1.20;87.00;;;;;;5023395;28;20048;-87
2021/01/01 03:51:58;;;;;;;1.27;1.00;;;1.10;87.20;;;;;;5023111;28;20041;-86
2021/01/01 03:54:24;;;;;;;3.97;1.47;;;1.00;87.40;;;;;;5038811;28;20036;-87
2021/01/01 03:56:51;;;;;;;1.80;0.50;;;1.10;87.40;;;;;;5038886;28;20048;-87
2021/01/01 03:59:17;;;;;;;2.67;1.13;;;1.20;87.80;;;;;;5006684;28;20033;-87
2021/01/01 04:01:43;;;;;;;3.17;0.90;;;1.20;86.90;;;;;;5038621;28;20033;-87
2021/01/01 04:04:10;;;;;;;5.50;1.90;;;1.20;87.60;;;;;;5023209;28;20428;-86
2021/01/01 04:06:36;;;;;;;4.23;1.27;;;1.10;86.80;;;;;;5022584;28;20045;-86
2021/01/01 04:09:03;;;;;;;2.63;0.43;;;1.20;86.80;;;;;;5039799;28;20036;-86
2021/01/01 04:11:34;;;;;;;3.63;0.97;;;1.10;86.60;;;;;;5005990;28;20037;-87
2021/01/01 04:14:00;;;;;;;1.63;0.30;;;1.10;86.80;;;;;;5023065;28;20025;-88
2021/01/01 04:16:27;;;;;;;1.73;0.57;;;1.10;86.80;;;;;;5005118;28;20037;-87
2021/01/01 04:18:53;;;;;;;3.17;1.17;;;1.10;86.70;;;;;;5022712;28;20032;-86
2021/01/01 04:21:19;;;;;;;1.93;0.93;;;1.20;86.50;;;;;;5039292;28;20025;-87
2021/01/01 04:23:46;;;;;;;0.60;0.43;;;1.20;86.40;;;;;;5038937;28;20033;-87
2021/01/01 04:26:13;;;;;;;1.50;0.70;;;1.20;86.30;;;;;;5038992;28;20029;-86
2021/01/01 04:28:39;;;;;;;4.77;1.07;;;1.20;86.30;;;;;;5022991;28;20021;-86
2021/01/01 04:31:06;;;;;;;0.20;0.20;;;1.20;86.30;;;;;;5038567;28;20040;-87
2021/01/01 04:33:32;;;;;;;1.77;0.77;;;1.20;86.40;;;;;;5022678;28;20025;-86
2021/01/01 04:35:58;;;;;;;0.60;0.27;;;1.10;86.30;;;;;;5039033;28;20025;-86
2021/01/01 04:38:25;;;;;;;0.47;0.30;;;1.20;86.40;;;;;;5022411;28;20052;-86
2021/01/01 04:40:52;;;;;;;0.40;0.20;;;1.20;86.30;;;;;;5005939;28;20435;-89
2021/01/01 04:43:18;;;;;;;0.77;0.47;;;1.20;86.30;;;;;;5006647;28;20047;-89
2021/01/01 04:45:45;;;;;;;1.63;0.47;;;1.20;86.20;;;;;;5039461;28;20036;-87
2021/01/01 04:48:12;;;;;;;2.10;0.50;;;1.20;86.20;;;;;;5021976;28;20036;-87
2021/01/01 04:50:38;;;;;;;2.47;1.13;;;1.20;86.20;;;;;;5021072;28;20026;-87
2021/01/01 04:53:05;;;;;;;1.53;0.37;;;1.20;86.10;;;;;;5038666;28;20033;-86
2021/01/01 04:55:31;;;;;;;0.40;0.30;;;1.20;86.10;;;;;;5021088;28;20044;-84
2021/01/01 04:57:57;;;;;;;8.80;0.77;;;1.20;86.00;;;;;;5021500;28;20359;-87
2021/01/01 05:00:24;;;;;;;0.00;0.00;;;1.30;85.90;;;;;;5022251;28;20446;-87
2021/01/01 05:02:50;;;;;;;0.60;0.20;;;1.20;85.90;;;;;;5022473;28;20466;-87
2021/01/01 05:05:22;;;;;;;0.80;0.77;;;1.20;85.90;;;;;;5039082;28;20040;-87
2021/01/01 05:07:48;;;;;;;0.30;0.30;;;1.20;86.00;;;;;;5038418;28;20423;-85
2021/01/01 05:10:15;;;;;;;0.27;0.27;;;1.20;86.00;;;;;;5038066;28;20036;-85
2021/01/01 05:12:41;;;;;;;0.10;0.00;;;1.20;86.00;;;;;;5038107;28;20028;-86
2021/01/01 05:15:08;;;;;;;1.60;0.63;;;1.10;86.00;;;;;;5036843;28;20044;-86
2021/01/01 05:17:37;;;;;;;0.10;0.10;;;1.10;86.20;;;;;;5038081;28;20040;-84
2021/01/01 05:20:09;;;;;;;1.13;0.37;;;1.10;86.30;;;;;;5038373;28;20038;-86
2021/01/01 05:22:35;;;;;;;;;;;1.20;86.20;;;;;;5038301;28;20033;-86
2021/01/01 05:25:17;;;;;;;0.07;0.07;;;1.20;86.00;;;;;;5054894;28;19908;-86
2021/01/01 05:27:47;;;;;;;0.47;0.20;;;1.20;86.00;;;;;;5039405;28;20048;-85
2021/01/01 05:30:15;;;;;;;0.33;0.27;;;1.10;86.00;;;;;;5020136;28;20044;-84
2021/01/01 05:32:53;;;;;;;0.10;0.10;;;1.20;86.10;;;;;;5038290;28;20025;-85
2021/01/01 05:35:29;;;;;;;0.20;0.20;;;1.20;86.00;;;;;;5021071;28;20052;-84
2021/01/01 05:37:56;;;;;;;0.00;0.00;;;1.20;86.00;;;;;;5021003;28;20044;-89
2021/01/01 05:40:32;;;;;;;0.77;0.50;;;1.10;86.00;;;;;;5039977;28;20335;-90
2021/01/01 05:43:17;;;;;;;0.37;0.17;;;1.10;86.20;;;;;;5023222;28;20339;-85
2021/01/01 05:45:43;;;;;;;0.63;0.50;;;1.10;86.20;;;;;;5020687;28;20428;-85
2021/01/01 05:48:10;;;;;;;0.90;0.87;;;1.10;86.30;;;;;;5037657;28;20033;-85
2021/01/01 05:50:36;;;;;;;0.97;0.40;;;1.10;86.30;;;;;;5004561;28;20052;-88
2021/01/01 05:53:17;;;;;;;0.40;0.30;;;1.10;86.20;;;;;;5038014;28;20029;-88
2021/01/01 05:55:44;;;;;;;0.65;0.17;;;1.10;86.20;;;;;;5005872;28;20060;-86
2021/01/01 05:58:20;;;;;;;6.80;1.30;;;1.10;86.20;;;;;;5037262;28;20037;-87
2021/01/01 06:00:55;;;;;;;1.53;0.93;;;1.10;86.10;;;;;;5036343;28;20035;-85
2021/01/01 06:03:25;;;;;;;0.20;0.20;;;1.10;86.10;;;;;;5005211;28;20040;-85
2021/01/01 06:05:56;;;;;;;0.85;0.17;;;1.00;86.20;;;;;;5037257;28;20029;-87
2021/01/01 06:08:28;;;;;;;0.60;0.40;;;1.00;86.40;;;;;;5021420;28;20060;-85
2021/01/01 06:11:00;;;;;;;0.28;0.10;;;1.00;86.50;;;;;;5004473;28;20045;-86
2021/01/01 06:13:32;;;;;;;0.00;0.00;;;0.90;86.50;;;;;;5021194;28;20437;-85
2021/01/01 06:15:59;;;;;;;1.60;0.97;;;0.90;86.60;;;;;;5020573;28;20036;-85
2021/01/01 06:18:30;;;;;;;0.53;0.20;;;0.80;86.60;;;;;;5020945;28;20028;-86
2021/01/01 06:21:04;;;;;;;0.40;0.28;;;0.80;86.60;;;;;;5020674;28;20025;-86
2021/01/01 06:23:32;;;;;;;2.33;0.73;;;0.80;86.70;;;;;;5021396;28;20037;-87
2021/01/01 06:26:08;;;;;;;0.27;0.13;;;0.80;86.60;;;;;;5036550;28;20033;-85
2021/01/01 06:28:35;;;;;;;0.63;0.30;;;0.80;86.60;;;;;;5004267;28;20029;-85
2021/01/01 06:31:02;;;;;;;0.53;0.23;;;0.80;86.50;;;;;;5020169;28;20032;-86
2021/01/01 06:33:28;;;;;;;0.67;0.63;;;0.80;86.60;;;;;;5019846;28;20044;-85
2021/01/01 06:35:55;;;;;;;0.97;0.57;;;0.80;86.60;;;;;;5020600;28;20021;-86
2021/01/01 06:38:40;;;;;;;0.47;0.40;;;0.70;86.60;;;;;;5019281;28;20037;-85
2021/01/01 06:41:14;;;;;;;11.73;1.00;;;0.70;86.60;;;;;;5023194;28;20331;-89
2021/01/01 06:43:55;;;;;;;0.00;0.00;;;0.80;86.70;;;;;;5022146;28;20017;-87
2021/01/01 06:46:32;;;;;;;0.47;0.20;;;0.80;86.50;;;;;;5002777;28;20056;-85
2021/01/01 06:48:59;;;;;;;3.20;0.30;;;0.80;86.40;;;;;;5036526;28;20036;-86
2021/01/01 06:51:28;;;;;;;0.30;0.20;;;0.80;86.50;;;;;;5036379;28;20033;-84
2021/01/01 06:53:56;;;;;;;0.83;0.30;;;0.80;86.40;;;;;;5020415;28;20032;-85
2021/01/01 06:56:23;;;;;;;1.70;0.50;;;0.80;86.50;;;;;;5020415;28;20033;-86
2021/01/01 06:58:49;;;;;;;0.40;0.20;;;0.90;86.40;;;;;;5036037;28;20040;-84
2021/01/01 07:01:16;;;;;;;0.00;0.00;;;0.80;86.30;;;;;;5019126;28;20033;-86
2021/01/01 07:03:43;;;;;;;1.50;0.63;;;0.80;86.40;;;;;;5020775;28;20036;-85
2021/01/01 07:06:09;;;;;;;0.37;0.13;;;0.80;86.50;;;;;;5021154;28;20025;-85
2021/01/01 07:08:42;;;;;;;0.53;0.30;;;0.70;86.60;;;;;;5053772;28;20037;-85
2021/01/01 07:11:11;;;;;;;0.03;0.03;;;0.80;86.60;;;;;;5054545;28;20021;-85
2021/01/01 07:13:53;;;;;;;1.00;0.20;;;0.80;86.60;;;;;;5053565;28;20025;-86
2021/01/01 07:16:22;;;;;;;2.00;0.57;;;0.80;86.50;;;;;;5004523;28;20032;-84
2021/01/01 07:18:48;;;;;;;0.73;0.40;;;0.80;86.40;;;;;;5036534;28;20320;-84
2021/01/01 07:21:15;;;;;;;2.17;0.83;;;0.80;86.50;;;;;;5036083;28;20569;-85
2021/01/01 07:23:42;;;;;;;0.00;0.00;;;0.80;86.50;;;;;;5019682;28;20033;-87
2021/01/01 07:26:09;;;;;;;0.30;0.20;;;0.80;86.50;;;;;;5003391;28;20033;-86
2021/01/01 07:28:37;;;;;;;0.13;0.10;;;0.80;86.40;;;;;;5035177;28;20072;-86
2021/01/01 07:31:04;;;;;;;0.60;0.40;;;0.90;86.40;;;;;;5019643;28;20423;-85
2021/01/01 07:33:31;;;;;;;0.77;0.67;;;0.90;86.30;;;;;;5036000;28;20021;-85
2021/01/01 07:35:57;;;;;;;0.30;0.30;;;0.90;86.30;;;;;;5019685;28;20033;-88
2021/01/01 07:38:25;;;;;;;0.00;0.00;;;0.90;86.20;;;;;;5035205;28;20048;-86
2021/01/01 07:40:51;;;;;;;0.70;0.37;;;0.90;86.20;;;;;;5019613;28;20041;-85
2021/01/01 07:43:18;;;;;;;1.27;0.70;;;0.80;86.20;;;;;;5003159;28;20037;-85
2021/01/01 07:45:44;;;;;;;0.10;0.00;;;0.80;86.40;;;;;;5002335;28;20040;-85
2021/01/01 07:48:11;;;;;;;0.40;0.20;;;0.80;86.40;;;;;;5019804;28;20029;-86
2021/01/01 07:50:37;;;;;;;0.87;0.60;;;0.80;86.40;;;;;;5036454;28;20037;-87
2021/01/01 07:53:07;;;;;;;0.10;0.10;;;0.80;86.50;;;;;;5037066;28;20439;-88
2021/01/01 07:55:33;;;;;;;0.23;0.10;;;0.80;86.50;;;;;;5036089;28;20037;-86
2021/01/01 07:58:00;;;;;;;1.13;0.30;;;0.80;86.50;;;;;;5002435;28;20044;-87
2021/01/01 08:00:30;;;;;;;0.20;0.20;;;0.90;86.40;;;;;;5018915;28;20165;-86
2021/01/01 08:02:57;;;;;;;1.10;0.67;;;0.80;86.40;;;;;;5002399;28;20343;-86
2021/01/01 08:05:23;;;;;;;0.30;0.20;;;0.80;86.50;;;;;;5035396;28;20029;-86
2021/01/01 08:07:50;;;;;;;1.17;0.63;;;0.80;86.50;;;;;;5035416;28;20044;-86
2021/01/01 08:10:16;;;;;;;1.27;0.17;;;0.90;86.50;;;;;;5034879;28;20044;-87
2021/01/01 08:12:53;;;;;;;1.50;0.50;;;0.90;86.30;;;;;;5018378;28;20037;-86
2021/01/01 08:15:27;;;;;;;2.10;0.50;;;0.90;86.30;;;;;;5034742;28;20447;-87
2021/01/01 08:17:53;;;;;;;0.77;0.23;;;1.00;86.20;;;;;;5018496;28;20051;-86
2021/01/01 08:20:20;;;;;;;0.50;0.17;;;1.00;86.20;;;;;;5018977;28;20029;-86
2021/01/01 08:22:49;;;;;;;2.07;0.53;;;1.10;86.10;;;;;;5002143;28;20056;-86
2021/01/01 08:25:17;;;;;;;0.77;0.33;;;1.10;86.00;;;;;;5021931;28;20344;-86
2021/01/01 08:27:44;;;;;;;1.27;0.67;;;1.20;86.00;;;;;;5022482;28;20036;-87
2021/01/01 08:30:11;;;;;;;4.00;0.87;;;1.30;85.80;;;;;;5021925;28;20025;-86
2021/01/01 08:32:37;;;;;;;0.73;0.37;;;1.30;85.50;;;;;;5022465;28;20033;-86
2021/01/01 08:35:04;;;;;;;1.83;1.03;;;1.30;85.50;;;;;;5021522;28;20037;-88
2021/01/01 08:37:30;;;;;;;0.60;0.40;;;1.30;85.60;;;;;;5005626;28;20052;-86
2021/01/01 08:40:07;;;;;;;1.37;0.73;;;1.30;85.60;;;;;;5021517;28;20040;-87
2021/01/01 08:42:38;;;;;;;1.57;0.80;;;1.40;85.70;;;;;;5022023;28;20041;-86
2021/01/01 08:45:11;;;;;;;1.00;0.50;;;1.40;85.50;;;;;;5022332;28;20025;-87
2021/01/01 08:47:50;;;;;;;0.30;0.17;;;1.50;85.40;;;;;;5041070;28;20029;-86
2021/01/01 08:50:24;;;;;;;1.67;0.43;;;1.60;85.30;;;;;;5057045;28;20416;-86
2021/01/01 08:53:03;;;;;;;0.30;0.20;;;1.60;85.20;;;;;;5022726;28;20032;-86
2021/01/01 08:55:30;;;;;;;0.20;0.13;;;1.60;85.20;;;;;;5022650;28;20033;-86
2021/01/01 08:58:06;;;;;;;1.33;0.80;;;1.70;85.20;;;;;;5021965;28;20443;-86
2021/01/01 09:00:33;;;;;;;1.77;0.87;;;1.70;85.10;;;;;;5021517;28;20026;-85
2021/01/01 09:02:59;;;;;;;1.03;0.40;;;1.70;85.00;;;;;;5020950;28;20033;-87
2021/01/01 09:05:27;;;;;;;1.00;0.83;;;1.70;84.90;;;;;;5005306;28;20040;-87
2021/01/01 09:08:09;;;;;;;0.97;0.50;;;1.60;85.00;;;;;;5004835;28;20048;-86
2021/01/01 09:10:40;;;;;;;0.63;0.27;;;1.60;85.20;;;;;;5055791;28;20033;-87
2021/01/01 09:13:34;;;;;;;0.50;0.40;;;1.60;85.30;;;;;;5037482;28;20041;-86
2021/01/01 09:16:03;;;;;;;0.60;0.43;;;1.50;85.40;;;;;;5037908;28;20045;-90
2021/01/01 09:18:29;;;;;;;0.13;0.03;;;1.50;85.40;;;;;;5038431;28;20048;-89
2021/01/01 09:21:15;;;;;;;0.10;0.10;;;1.50;85.40;;;;;;5021166;28;20036;-86
2021/01/01 09:23:50;;;;;;;0.40;0.30;;;1.60;85.40;;;;;;5021203;28;20041;-87
2021/01/01 09:26:27;;;;;;;0.10;0.10;;;1.60;85.30;;;;;;5038887;28;20028;-87
2021/01/01 09:29:09;;;;;;;0.23;0.17;;;1.60;85.10;;;;;;5020763;28;20041;-86
2021/01/01 09:31:36;;;;;;;1.90;0.67;;;1.70;85.00;;;;;;5021867;28;20033;-86
2021/01/01 09:34:07;;;;;;;0.20;0.20;;;1.90;84.70;;;;;;5021278;28;20032;-86
2021/01/01 09:36:40;;;;;;;1.55;0.32;;;2.00;84.30;;;;;;5019527;28;20052;-87
2021/01/01 09:39:07;;;;;;;4.70;0.37;;;2.10;84.20;;;;;;5021836;28;20045;-86
2021/01/01 09:41:37;;;;;;;0.43;0.20;;;2.20;84.10;;;;;;5021312;28;20025;-86
2021/01/01 09:44:04;;;;;;;0.20;0.20;;;2.30;83.80;;;;;;5020959;28;20021;-86
2021/01/01 09:46:30;;;;;;;0.73;0.30;;;2.40;83.80;;;;;;5020061;28;20029;-86
2021/01/01 09:48:57;;;;;;;15.00;0.87;;;2.40;83.60;;;;;;5055085;28;20255;-85
2021/01/01 09:51:23;;;;;;;0.20;0.20;;;2.60;83.60;;;;;;5020971;28;20025;-85
2021/01/01 09:53:49;;;;;;;1.23;0.43;;;2.70;83.30;;;;;;5020472;28;20028;-85
2021/01/01 09:56:16;;;;;;;0.20;0.10;;;2.70;83.20;;;;;;5021027;28;20029;-86
2021/01/01 09:58:42;;;;;;;0.10;0.10;;;2.70;83.40;;;;;;5004045;28;20043;-87
2021/01/01 10:01:08;;;;;;;0.00;0.00;;;2.60;83.60;;;;;;5020767;28;20075;-91
2021/01/01 10:03:35;;;;;;;1.07;0.47;;;2.60;83.80;;;;;;5004523;28;20048;-88
2021/01/01 10:06:01;;;;;;;0.20;0.10;;;2.60;84.00;;;;;;5036969;28;20037;-85
2021/01/01 10:08:27;;;;;;;1.30;0.37;;;2.60;84.00;;;;;;5020196;28;20427;-85
2021/01/01 10:10:56;;;;;;;1.47;0.57;;;2.60;84.00;;;;;;5036915;28;20021;-85
2021/01/01 10:13:22;;;;;;;1.00;0.47;;;2.70;84.00;;;;;;5020586;28;20037;-85
2021/01/01 10:15:49;;;;;;;0.50;0.43;;;2.80;83.80;;;;;;5019944;28;20037;-85
2021/01/01 10:18:15;;;;;;;1.53;0.63;;;2.90;83.60;;;;;;5054133;28;20029;-85
2021/01/01 10:20:41;;;;;;;0.00;0.00;;;2.90;83.90;;;;;;5019531;28;20250;-85
2021/01/01 10:23:08;;;;;;;2.23;1.23;;;2.90;83.60;;;;;;5036403;28;20033;-86
2021/01/01 10:25:34;;;;;;;0.00;0.00;;;2.80;83.80;;;;;;5038267;28;20041;-85
2021/01/01 10:28:01;;;;;;;0.10;0.00;;;2.80;84.00;;;;;;5055754;28;20029;-86
2021/01/01 10:30:27;;;;;;;0.30;0.07;;;2.70;84.20;;;;;;5003637;28;20044;-86
2021/01/01 10:32:55;;;;;;;0.27;0.03;;;2.70;84.40;;;;;;5020211;28;20029;-87
2021/01/01 10:35:21;;;;;;;0.83;0.27;;;2.70;84.40;;;;;;5020177;28;20300;-85
2021/01/01 10:37:50;;;;;;;1.40;0.33;;;2.70;84.40;;;;;;5019826;28;20049;-85
2021/01/01 10:40:16;;;;;;;3.03;0.93;;;2.80;84.40;;;;;;5020152;28;20017;-85
2021/01/01 10:42:42;;;;;;;0.47;0.27;;;2.90;84.30;;;;;;5019723;28;20028;-85
2021/01/01 10:45:09;;;;;;;2.10;0.30;;;2.90;84.10;;;;;;5036000;28;20036;-85
2021/01/01 10:47:36;;;;;;;1.03;0.50;;;3.00;84.10;;;;;;5021347;28;20052;-85
2021/01/01 10:50:02;;;;;;;1.50;0.63;;;3.00;84.00;;;;;;5043415;28;20029;-85
2021/01/01 10:52:29;;;;;;;0.90;0.40;;;3.00;84.00;;;;;;5025305;28;20036;-85
2021/01/01 10:54:55;;;;;;;1.33;0.90;;;3.00;84.00;;;;;;5024615;28;20471;-85
2021/01/01 10:57:21;;;;;;;0.03;0.03;;;3.10;84.10;;;;;;5048565;28;20021;-85
2021/01/01 10:59:48;;;;;;;0.33;0.20;;;3.10;84.10;;;;;;5044456;28;20312;-85
2021/01/01 11:02:14;;;;;;;0.97;0.40;;;3.10;84.10;;;;;;5035061;28;20048;-85
2021/01/01 11:04:41;;;;;;;0.23;0.17;;;3.20;84.20;;;;;;5035982;28;20032;-86
2021/01/01 11:07:07;;;;;;;0.30;0.30;;;3.20;83.90;;;;;;5019831;28;20029;-85
2021/01/01 11:09:34;;;;;;;0.20;0.20;;;3.40;83.80;;;;;;5003165;28;20179;-85
2021/01/01 11:12:00;;;;;;;3.67;1.47;;;3.40;84.30;;;;;;5019316;28;20048;-85
2021/01/01 12:25:36;;;;;;;0.50;0.37;;;5.30;81.90;;;;;;5022675;28;20032;-86
2021/01/01 12:28:03;;;;;;;0.27;0.10;;;5.30;81.70;;;;;;5022423;28;20028;-85
2021/01/01 12:30:30;;;;;;;0.00;0.00;;;5.30;81.70;;;;;;5021505;28;20040;-85
2021/01/01 12:32:56;;;;;;;0.90;0.43;;;5.30;81.90;;;;;;5021709;28;20053;-84
2021/01/01 12:35:23;;;;;;;0.23;0.20;;;5.30;82.00;;;;;;5022022;28;20044;-86
2021/01/01 12:38:05;;;;;;;0.20;0.20;;;5.20;82.00;;;;;;5006164;28;20045;-85
2021/01/01 12:40:33;;;;;;;0.87;0.27;;;5.20;83.00;;;;;;5022752;28;20029;-86
2021/01/01 12:43:03;;;;;;;0.40;0.17;;;5.20;82.40;;;;;;5006024;28;20037;-85
2021/01/01 12:45:30;;;;;;;0.00;0.00;;;5.20;82.40;;;;;;5038309;28;20032;-85
2021/01/01 12:47:56;;;;;;;0.10;0.10;;;5.30;82.30;;;;;;5022444;28;20037;-85
2021/01/01 12:50:23;;;;;;;0.10;0.10;;;5.40;82.30;;;;;;5021780;28;20041;-86
2021/01/01 12:52:54;;;;;;;0.53;0.37;;;5.50;81.90;;;;;;5021974;28;20033;-85
2021/01/01 12:55:21;;;;;;;0.47;0.20;;;5.60;81.80;;;;;;5005584;28;20052;-86
2021/01/01 12:57:47;;;;;;;0.00;0.00;;;5.60;81.70;;;;;;5038385;28;20033;-85
2021/01/01 13:00:14;;;;;;;0.20;0.20;;;5.70;81.70;;;;;;5037146;28;20044;-85
2021/01/01 13:02:40;;;;;;;0.37;0.17;;;5.70;81.60;;;;;;5037446;28;20040;-86
2021/01/01 13:05:08;;;;;;;0.30;0.20;;;5.80;81.50;;;;;;5022212;28;20021;-86
2021/01/01 13:07:34;;;;;;;0.00;0.00;;;6.00;81.10;;;;;;5021612;28;20021;-85
2021/01/01 13:10:01;;;;;;;4.53;0.23;;;6.10;80.80;;;;;;5020202;28;20431;-85
2021/01/01 13:12:27;;;;;;;0.20;0.10;;;6.10;80.80;;;;;;5021371;28;20327;-85
2021/01/01 13:14:54;;;;;;;0.23;0.17;;;6.00;80.90;;;;;;5038025;28;20051;-85
2021/01/01 13:17:20;;;;;;;1.80;0.70;;;5.80;81.20;;;;;;5054896;28;20052;-85
2021/01/01 13:19:46;;;;;;;2.80;1.17;;;5.70;81.70;;;;;;5037785;28;20033;-86
2021/01/01 13:22:13;;;;;;;0.00;0.00;;;5.80;81.70;;;;;;5038077;28;20420;-86
2021/01/01 13:24:39;;;;;;;2.10;0.43;;;5.80;81.40;;;;;;5020996;28;20040;-86
2021/01/01 13:27:06;;;;;;;0.30;0.17;;;5.90;81.30;;;;;;5021331;28;20033;-86
2021/01/01 13:29:32;;;;;;;0.43;0.10;;;6.00;80.80;;;;;;5036971;28;20049;-85
2021/01/01 13:31:59;;;;;;;0.60;0.47;;;6.10;80.70;;;;;;5020723;28;20040;-85
2021/01/01 13:34:25;;;;;;;0.57;0.50;;;6.20;80.50;;;;;;5021135;28;20037;-85
2021/01/01 13:36:53;;;;;;;0.10;0.00;;;6.20;80.30;;;;;;5055649;28;20044;-87
2021/01/01 13:39:20;;;;;;;0.00;0.00;;;6.20;80.10;;;;;;5037585;28;20344;-85
2021/01/01 13:41:46;;;;;;;0.50;0.20;;;6.10;80.10;;;;;;5021415;28;20432;-86
2021/01/01 13:44:12;;;;;;;0.00;0.00;;;6.00;80.30;;;;;;5021045;28;20036;-86
2021/01/01 13:46:39;;;;;;;0.40;0.33;;;5.90;80.70;;;;;;5020114;28;20040;-85
2021/01/01 13:49:06;;;;;;;1.00;0.90;;;5.70;80.60;;;;;;5020946;28;20033;-86
2021/01/01 13:51:33;;;;;;;0.00;0.00;;;5.60;80.70;;;;;;5055256;28;20033;-85
2021/01/01 13:54:00;;;;;;;5.43;0.90;;;5.50;80.90;;;;;;5054249;28;20054;-86
2021/01/01 13:56:26;;;;;;;12.63;0.50;;;5.50;81.00;;;;;;5020957;28;20029;-86
2021/01/01 13:58:52;;;;;;;1.53;0.43;;;5.40;81.10;;;;;;5053989;28;20041;-85
2021/01/01 14:01:23;;;;;;;1.47;0.13;;;5.40;81.30;;;;;;5020232;28;20033;-86
2021/01/01 14:03:49;;;;;;;0.57;0.37;;;5.40;81.40;;;;;;5020756;28;20033;-87
2021/01/01 14:06:16;;;;;;;0.20;0.10;;;5.40;81.40;;;;;;5020031;28;20032;-86
2021/01/01 14:08:42;;;;;;;1.63;0.40;;;5.40;81.40;;;;;;5037175;28;20037;-87
2021/01/01 14:11:12;;;;;;;0.37;0.10;;;5.40;81.30;;;;;;5036629;28;20040;-86
2021/01/01 14:13:39;;;;;;;0.00;0.00;;;5.40;81.30;;;;;;5054964;28;20040;-86